Time;durP1;ratioP1;P1;durP2;ratioP2;P2;SDS_P1;SDS_P2;PMS_P1;PMS_P2;Temp;Humidity;BMP_temperature;BMP_pressure;BME280_temperature;BME280_humidity;BME280_pressure;Samples;Min_cycle;Max_cycle;Signal;HPM_P1;HPM_P2
2022/10/10 00:02:14;;;;;;;8.20;7.37;;;13.50;99.90;;;;;;5099170;28;20170;-68
2022/10/10 00:04:40;;;;;;;9.13;8.03;;;13.70;99.90;;;;;;5107596;28;20197;-69
2022/10/10 00:07:05;;;;;;;10.50;8.87;;;13.60;99.90;;;;;;5075614;28;20165;-68
2022/10/10 00:09:31;;;;;;;8.60;7.57;;;13.50;99.90;;;;;;5094955;28;20178;-70
2022/10/10 00:11:57;;;;;;;9.20;8.17;;;13.70;99.90;;;;;;5094788;28;20171;-68
2022/10/10 00:14:23;;;;;;;9.77;7.47;;;13.70;99.90;;;;;;5093336;28;20941;-68
2022/10/10 00:16:48;;;;;;;8.63;7.40;;;13.70;99.90;;;;;;5094710;28;20166;-69
2022/10/10 00:19:14;;;;;;;8.07;7.37;;;13.80;99.90;;;;;;5095266;28;20173;-68
2022/10/10 00:21:40;;;;;;;10.20;7.37;;;13.80;99.90;;;;;;5094261;28;20215;-70
2022/10/10 00:24:06;;;;;;;10.07;7.30;;;13.80;99.90;;;;;;5094595;28;20173;-69
2022/10/10 00:26:32;;;;;;;8.03;7.20;;;13.90;99.90;;;;;;5094763;28;20420;-68
2022/10/10 00:28:57;;;;;;;10.80;8.47;;;14.00;99.90;;;;;;5094359;28;20180;-68
2022/10/10 00:31:23;;;;;;;8.37;7.57;;;14.00;99.90;;;;;;5094405;28;20636;-69
2022/10/10 00:33:48;;;;;;;7.70;7.00;;;13.90;99.90;;;;;;5094484;28;20197;-71
2022/10/10 00:36:14;;;;;;;8.90;6.83;;;13.90;99.90;;;;;;5094301;28;20188;-69
2022/10/10 00:38:40;;;;;;;9.20;7.43;;;14.00;99.90;;;;;;5094145;28;20202;-70
2022/10/10 00:41:05;;;;;;;9.17;7.47;;;14.00;99.90;;;;;;5075466;28;20177;-70
2022/10/10 00:43:34;;;;;;;8.23;7.53;;;13.80;99.90;;;;;;5093545;28;20637;-70
2022/10/10 00:46:00;;;;;;;8.93;7.23;;;13.90;99.90;;;;;;5093974;28;20185;-70
2022/10/10 00:48:46;;;;;;;9.37;8.50;;;13.90;99.90;;;;;;5094007;28;20407;-69
2022/10/10 00:51:15;;;;;;;7.53;6.80;;;13.80;99.90;;;;;;5094233;28;20200;-69
2022/10/10 00:53:48;;;;;;;10.20;7.70;;;14.00;99.90;;;;;;5094031;28;20449;-70
2022/10/10 00:56:16;;;;;;;8.30;7.20;;;13.90;99.90;;;;;;5092402;28;20458;-69
2022/10/10 00:58:46;;;;;;;7.87;7.23;;;13.90;99.90;;;;;;5093491;28;20399;-69
2022/10/10 01:01:12;;;;;;;9.17;8.27;;;14.00;99.90;;;;;;5094201;28;20816;-69
2022/10/10 01:03:37;;;;;;;9.07;8.17;;;14.00;99.90;;;;;;5093823;28;20443;-69
2022/10/10 01:06:04;;;;;;;8.27;7.47;;;14.10;99.90;;;;;;5093683;28;20250;-69
2022/10/10 01:08:29;;;;;;;8.00;7.30;;;14.20;99.90;;;;;;5092568;28;20175;-69
2022/10/10 01:11:23;;;;;;;10.13;7.80;;;14.30;99.90;;;;;;5093826;28;20404;-69
2022/10/10 01:14:10;;;;;;;8.33;7.53;;;14.30;99.90;;;;;;5093721;28;20282;-69
2022/10/10 01:16:42;;;;;;;7.30;6.63;;;14.30;99.90;;;;;;5093907;28;20467;-69
2022/10/10 01:19:47;;;;;;;7.60;6.90;;;14.30;99.90;;;;;;5093754;28;20393;-69
2022/10/10 01:22:37;;;;;;;8.10;7.00;;;14.30;99.90;;;;;;5093651;28;20382;-69
2022/10/10 01:25:17;;;;;;;6.63;6.03;;;14.30;99.90;;;;;;5093263;28;20921;-69
2022/10/10 01:27:50;;;;;;;8.43;6.50;;;14.30;99.90;;;;;;5075167;28;20406;-68
2022/10/10 01:30:21;;;;;;;9.07;6.90;;;14.40;99.90;;;;;;5093535;28;20805;-69
2022/10/10 01:33:04;;;;;;;8.80;6.80;;;14.30;99.90;;;;;;5075071;28;20543;-68
2022/10/10 01:35:56;;;;;;;7.27;6.57;;;14.20;99.90;;;;;;5093494;28;20802;-69
2022/10/10 01:38:42;;;;;;;8.23;7.30;;;14.10;99.90;;;;;;5074494;28;20413;-69
2022/10/10 01:41:31;;;;;;;7.10;6.40;;;14.00;99.90;;;;;;5075384;28;20390;-70
2022/10/10 01:43:58;;;;;;;7.60;6.80;;;14.00;99.90;;;;;;5093270;28;20498;-70
2022/10/10 01:46:24;;;;;;;10.83;7.93;;;14.00;99.90;;;;;;5093427;28;20404;-70
2022/10/10 01:48:53;;;;;;;8.00;6.80;;;14.00;99.90;;;;;;5093063;28;20422;-70
2022/10/10 01:51:31;;;;;;;10.77;6.90;;;13.90;99.90;;;;;;5091813;28;20417;-70
2022/10/10 01:54:22;;;;;;;8.67;7.43;;;14.00;99.90;;;;;;5092547;28;20496;-70
2022/10/10 01:56:57;;;;;;;7.03;6.43;;;13.80;99.90;;;;;;5092684;28;20734;-70
2022/10/10 01:59:39;;;;;;;7.80;7.00;;;13.70;99.90;;;;;;5093384;28;20398;-69
2022/10/10 02:02:12;;;;;;;7.00;6.30;;;13.80;99.90;;;;;;5093278;28;20372;-75
2022/10/10 02:04:46;;;;;;;7.77;7.03;;;13.80;99.90;;;;;;5074911;28;20420;-70
2022/10/10 02:07:29;;;;;;;7.57;6.87;;;13.80;99.90;;;;;;5092348;28;20439;-70
2022/10/10 02:09:58;;;;;;;9.20;7.00;;;13.70;99.90;;;;;;5071937;28;20380;-70
2022/10/10 02:12:25;;;;;;;7.70;7.00;;;13.60;99.90;;;;;;5072658;28;20445;-70
2022/10/10 02:14:55;;;;;;;7.47;6.77;;;13.70;99.90;;;;;;5054747;28;20425;-70
2022/10/10 02:17:24;;;;;;;8.53;7.03;;;13.70;99.90;;;;;;5072737;28;20774;-70
2022/10/10 02:19:55;;;;;;;7.27;6.60;;;13.80;99.90;;;;;;5072607;28;20452;-70
2022/10/10 02:22:23;;;;;;;8.63;6.57;;;13.80;99.90;;;;;;5072698;28;20968;-70
2022/10/10 02:24:50;;;;;;;6.90;6.30;;;13.90;99.90;;;;;;5054139;28;20449;-70
2022/10/10 02:27:22;;;;;;;6.73;6.07;;;13.90;99.90;;;;;;5054838;28;20819;-70
2022/10/10 02:29:49;;;;;;;8.03;7.23;;;13.90;99.90;;;;;;5072364;28;20480;-71
2022/10/10 02:32:24;;;;;;;8.03;7.30;;;13.70;99.90;;;;;;5072747;28;20403;-71
2022/10/10 02:34:54;;;;;;;7.53;6.10;;;13.70;99.90;;;;;;5072728;28;20438;-71
2022/10/10 02:37:20;;;;;;;9.40;6.97;;;13.70;99.90;;;;;;5075657;28;20876;-71
2022/10/10 02:39:50;;;;;;;7.40;6.70;;;13.60;99.90;;;;;;5092312;28;20759;-70
2022/10/10 02:42:18;;;;;;;9.30;6.77;;;13.60;99.90;;;;;;5092812;28;20915;-70
2022/10/10 02:44:45;;;;;;;7.07;6.30;;;13.60;99.90;;;;;;5092196;28;20760;-71
2022/10/10 02:47:10;;;;;;;6.97;6.17;;;13.60;99.90;;;;;;5092355;28;20404;-70
2022/10/10 02:49:36;;;;;;;7.40;6.80;;;13.60;99.90;;;;;;5091912;28;20810;-71
2022/10/10 02:52:02;;;;;;;6.60;5.90;;;13.50;99.90;;;;;;5092278;28;20180;-70
2022/10/10 02:54:28;;;;;;;6.83;6.10;;;13.30;99.90;;;;;;5092249;28;20224;-70
2022/10/10 02:56:54;;;;;;;7.10;6.40;;;13.40;99.90;;;;;;5091634;28;20419;-70
2022/10/10 02:59:19;;;;;;;6.17;5.60;;;13.40;99.90;;;;;;5092121;28;20174;-70
2022/10/10 03:01:45;;;;;;;8.07;7.23;;;13.40;99.90;;;;;;5092419;28;20167;-70
2022/10/10 03:04:10;;;;;;;9.20;7.50;;;13.60;99.90;;;;;;5092237;28;20177;-70
2022/10/10 03:06:36;;;;;;;7.13;6.40;;;13.50;99.90;;;;;;5075517;28;20178;-70
2022/10/10 03:09:03;;;;;;;8.40;7.50;;;13.60;99.90;;;;;;5095092;28;20175;-70
2022/10/10 03:11:29;;;;;;;8.67;7.83;;;13.50;99.90;;;;;;5096310;28;20409;-70
2022/10/10 03:13:54;;;;;;;8.67;7.77;;;13.50;99.90;;;;;;5094473;28;20453;-70
2022/10/10 03:16:20;;;;;;;7.97;7.20;;;13.40;99.90;;;;;;5096349;28;20551;-70
2022/10/10 03:18:45;;;;;;;9.30;8.40;;;13.50;99.90;;;;;;5095844;28;20518;-70
2022/10/10 03:21:11;;;;;;;7.67;6.60;;;13.60;99.90;;;;;;5094665;28;20208;-69
2022/10/10 03:23:37;;;;;;;7.70;7.00;;;13.60;99.90;;;;;;5095846;28;20728;-71
2022/10/10 03:26:03;;;;;;;7.00;6.30;;;13.60;99.90;;;;;;5095624;28;20193;-67
2022/10/10 03:28:29;;;;;;;8.50;7.60;;;13.70;99.90;;;;;;5094818;28;20227;-68
2022/10/10 03:30:54;;;;;;;13.73;10.07;;;13.70;99.90;;;;;;5095903;28;20879;-70
2022/10/10 03:33:21;;;;;;;8.30;7.53;;;13.60;99.90;;;;;;5095201;28;20199;-68
2022/10/10 03:35:47;;;;;;;7.53;6.93;;;13.60;99.90;;;;;;5095785;28;20183;-70
2022/10/10 03:38:12;;;;;;;11.13;9.67;;;13.70;99.90;;;;;;5095527;28;20448;-69
2022/10/10 03:40:42;;;;;;;11.17;9.40;;;13.60;99.90;;;;;;5096879;28;20804;-69
2022/10/10 03:43:10;;;;;;;10.63;9.73;;;13.60;99.90;;;;;;5096561;28;20549;-69
2022/10/10 03:45:36;;;;;;;11.00;10.00;;;13.60;99.90;;;;;;5095990;28;20493;-69
2022/10/10 03:48:02;;;;;;;10.57;9.57;;;13.60;99.90;;;;;;5095999;28;20425;-70
2022/10/10 03:50:27;;;;;;;10.77;9.77;;;13.60;99.90;;;;;;5077164;28;20435;-69
2022/10/10 03:52:53;;;;;;;12.07;10.87;;;13.60;99.90;;;;;;5094841;28;20448;-69
2022/10/10 03:55:19;;;;;;;12.37;11.23;;;13.60;99.90;;;;;;5095003;28;20211;-70
2022/10/10 03:57:45;;;;;;;10.73;9.63;;;13.60;99.90;;;;;;5094987;28;20409;-69
2022/10/10 04:00:11;;;;;;;10.00;9.10;;;13.50;99.90;;;;;;5094908;28;20179;-70
2022/10/10 04:02:37;;;;;;;8.73;7.83;;;13.40;99.90;;;;;;5095016;28;20247;-70
2022/10/10 04:05:03;;;;;;;8.37;7.67;;;13.50;99.90;;;;;;5094732;28;20510;-70
2022/10/10 04:07:29;;;;;;;9.40;8.50;;;13.50;99.90;;;;;;5094834;28;20183;-68
2022/10/10 04:09:55;;;;;;;11.13;7.83;;;13.60;99.90;;;;;;5093551;28;20473;-68
2022/10/10 04:12:20;;;;;;;7.00;6.10;;;13.60;99.90;;;;;;5095085;28;20910;-68
2022/10/10 04:14:46;;;;;;;9.80;7.80;;;13.60;99.90;;;;;;5095047;28;20511;-69
2022/10/10 04:17:12;;;;;;;9.10;8.20;;;13.60;99.90;;;;;;5094866;28;20169;-69
2022/10/10 04:19:37;;;;;;;8.40;7.63;;;13.60;99.90;;;;;;5094294;28;20170;-69
2022/10/10 04:22:03;;;;;;;10.13;8.30;;;13.40;99.90;;;;;;5076827;28;20280;-68
2022/10/10 04:24:29;;;;;;;7.77;6.97;;;13.50;99.90;;;;;;5094285;28;20199;-69
2022/10/10 04:26:54;;;;;;;8.60;7.80;;;13.50;99.90;;;;;;5076930;28;20194;-69
2022/10/10 04:29:20;;;;;;;6.67;5.97;;;13.50;99.90;;;;;;5094682;28;20178;-70
2022/10/10 04:31:45;;;;;;;9.67;8.60;;;13.50;99.90;;;;;;5076700;28;20227;-69
2022/10/10 04:34:11;;;;;;;7.10;6.40;;;13.60;99.90;;;;;;5094499;28;20291;-69
2022/10/10 04:36:37;;;;;;;8.20;6.37;;;13.60;99.90;;;;;;5095283;28;20256;-69
2022/10/10 04:39:02;;;;;;;7.13;6.43;;;13.70;99.90;;;;;;5094547;28;20179;-68
2022/10/10 04:41:28;;;;;;;7.60;6.73;;;13.60;99.90;;;;;;5094670;28;20232;-70
2022/10/10 04:43:54;;;;;;;8.63;7.80;;;13.60;99.90;;;;;;5095098;28;20537;-71
2022/10/10 04:46:19;;;;;;;7.27;6.17;;;13.60;99.90;;;;;;5076989;28;20213;-69
2022/10/10 04:48:45;;;;;;;7.47;6.77;;;13.60;99.90;;;;;;5075146;28;20175;-70
2022/10/10 04:51:10;;;;;;;7.87;7.20;;;13.60;99.90;;;;;;5094530;28;20228;-69
2022/10/10 04:53:39;;;;;;;8.20;7.40;;;13.50;99.90;;;;;;5094416;28;20587;-70
2022/10/10 04:56:04;;;;;;;8.20;7.50;;;13.50;99.90;;;;;;5094197;28;20668;-69
2022/10/10 04:58:30;;;;;;;7.10;6.53;;;13.50;99.90;;;;;;5094562;28;20438;-69
2022/10/10 05:00:55;;;;;;;10.00;7.93;;;13.50;99.90;;;;;;5093317;28;20189;-70
2022/10/10 05:03:22;;;;;;;8.80;7.90;;;13.40;99.90;;;;;;5093899;28;20241;-69
2022/10/10 05:05:48;;;;;;;11.80;10.30;;;13.40;99.90;;;;;;5094540;28;20609;-69
2022/10/10 05:08:14;;;;;;;10.33;9.20;;;13.40;99.90;;;;;;5092738;28;20403;-69
2022/10/10 05:10:39;;;;;;;9.77;8.80;;;13.40;99.90;;;;;;5093564;28;20203;-69
2022/10/10 05:13:07;;;;;;;8.70;7.03;;;13.40;99.90;;;;;;5093941;28;20202;-69
2022/10/10 05:15:36;;;;;;;11.60;7.60;;;13.50;99.90;;;;;;5075998;28;20191;-69
2022/10/10 05:18:02;;;;;;;9.30;7.90;;;13.50;99.90;;;;;;5092969;28;20797;-69
2022/10/10 05:20:28;;;;;;;9.90;7.80;;;13.50;99.90;;;;;;5093351;28;20455;-67
2022/10/10 05:22:53;;;;;;;8.03;6.60;;;13.40;99.90;;;;;;5094604;28;20761;-68
2022/10/10 05:25:19;;;;;;;6.50;5.80;;;13.30;99.90;;;;;;5093686;28;20182;-69
2022/10/10 05:27:44;;;;;;;6.90;6.20;;;13.40;99.90;;;;;;5092307;28;20167;-68
2022/10/10 05:30:11;;;;;;;9.70;8.13;;;13.40;99.90;;;;;;5090659;28;20552;-69
2022/10/10 05:32:36;;;;;;;8.20;7.37;;;13.50;99.90;;;;;;5092834;28;20199;-69
2022/10/10 05:35:03;;;;;;;8.03;6.50;;;13.60;99.90;;;;;;5093137;28;20429;-69
2022/10/10 05:37:29;;;;;;;8.23;6.00;;;13.60;99.90;;;;;;5093347;28;20513;-69
2022/10/10 05:39:55;;;;;;;6.70;6.10;;;13.60;99.90;;;;;;5093554;28;20414;-70
2022/10/10 05:42:20;;;;;;;8.40;7.70;;;13.60;99.90;;;;;;5091962;28;20417;-69
2022/10/10 05:44:46;;;;;;;12.83;7.43;;;13.70;99.90;;;;;;5093086;28;20681;-70
2022/10/10 05:47:11;;;;;;;8.43;7.30;;;13.80;99.90;;;;;;5092614;28;20174;-70
2022/10/10 05:49:37;;;;;;;8.87;7.47;;;13.70;99.90;;;;;;5093799;28;20171;-70
2022/10/10 05:52:03;;;;;;;8.83;7.93;;;13.70;99.90;;;;;;5092939;28;20170;-70
2022/10/10 05:56:56;;;;;;;7.37;6.67;;;13.70;99.90;;;;;;5091353;28;20223;-70
2022/10/10 05:59:22;;;;;;;7.23;6.60;;;13.70;99.90;;;;;;5093221;28;20397;-70
2022/10/10 06:01:48;;;;;;;12.23;10.30;;;13.70;99.90;;;;;;5092826;28;20599;-70
2022/10/10 06:04:13;;;;;;;10.60;7.30;;;13.80;99.90;;;;;;5093108;28;20169;-70
2022/10/10 06:06:39;;;;;;;7.83;7.10;;;13.80;99.90;;;;;;5092753;28;20184;-69
2022/10/10 06:09:05;;;;;;;8.83;7.93;;;13.70;99.90;;;;;;5091417;28;20217;-69
2022/10/10 06:11:30;;;;;;;9.40;8.50;;;13.80;99.90;;;;;;5092834;28;20398;-70
2022/10/10 06:13:56;;;;;;;12.50;7.80;;;13.80;99.90;;;;;;5092619;28;20195;-70
2022/10/10 06:16:25;;;;;;;9.70;8.73;;;13.90;99.90;;;;;;5091143;28;20183;-70
2022/10/10 06:18:51;;;;;;;9.50;8.70;;;13.90;99.90;;;;;;5092530;28;20658;-69
2022/10/10 06:21:17;;;;;;;8.93;7.90;;;14.00;99.90;;;;;;5092862;28;20411;-70
2022/10/10 06:23:43;;;;;;;9.20;8.30;;;14.10;99.90;;;;;;5073736;28;20427;-70
2022/10/10 06:26:09;;;;;;;19.07;13.00;;;14.20;99.90;;;;;;5092580;28;20188;-70
2022/10/10 06:28:36;;;;;;;13.07;11.47;;;14.20;99.90;;;;;;5092133;28;20448;-70
2022/10/10 06:31:04;;;;;;;11.17;9.77;;;14.30;99.90;;;;;;5092162;28;20776;-70
2022/10/10 06:33:30;;;;;;;11.20;9.40;;;14.40;99.90;;;;;;5092876;28;21027;-70
2022/10/10 06:35:56;;;;;;;15.40;11.30;;;14.60;99.90;;;;;;5092742;28;20497;-70
2022/10/10 06:38:22;;;;;;;15.13;12.97;;;14.70;99.90;;;;;;5092935;28;20183;-70
2022/10/10 06:40:47;;;;;;;33.00;22.80;;;14.80;99.90;;;;;;5092250;28;20896;-71
2022/10/10 06:43:17;;;;;;;29.13;19.60;;;14.90;99.90;;;;;;5095328;28;20672;-70
2022/10/10 06:45:45;;;;;;;20.33;15.97;;;15.00;99.90;;;;;;5096951;28;20187;-70
2022/10/10 06:48:12;;;;;;;12.43;10.80;;;15.00;99.90;;;;;;5096822;28;20463;-70
2022/10/10 06:50:38;;;;;;;17.60;12.67;;;14.90;99.90;;;;;;5096685;28;20471;-70
2022/10/10 06:53:04;;;;;;;21.70;13.60;;;14.90;99.90;;;;;;5096480;28;20446;-70
2022/10/10 06:55:30;;;;;;;19.10;14.20;;;14.90;99.90;;;;;;5078298;28;20207;-70
2022/10/10 06:57:57;;;;;;;16.80;11.30;;;15.00;99.90;;;;;;5096388;28;20397;-70
2022/10/10 07:00:22;;;;;;;11.30;9.63;;;15.10;99.90;;;;;;5096002;28;20181;-70
2022/10/10 07:02:48;;;;;;;9.40;8.50;;;15.20;99.90;;;;;;5095660;28;20891;-70
2022/10/10 07:05:15;;;;;;;11.70;8.70;;;15.30;99.90;;;;;;5088745;28;20202;-70
2022/10/10 07:07:42;;;;;;;13.13;9.90;;;15.50;99.90;;;;;;5076123;28;20167;-70
2022/10/10 07:10:13;;;;;;;10.60;9.50;;;15.60;99.90;;;;;;5088398;28;20426;-70
2022/10/10 07:12:39;;;;;;;8.30;7.23;;;15.60;99.90;;;;;;5096373;28;20429;-70
2022/10/10 07:15:05;;;;;;;8.60;7.70;;;15.50;99.90;;;;;;5096093;28;20774;-70
2022/10/10 07:17:31;;;;;;;8.27;7.40;;;15.50;99.90;;;;;;5094458;28;20172;-70
2022/10/10 07:19:57;;;;;;;8.80;7.00;;;15.50;99.90;;;;;;5096347;28;20481;-70
2022/10/10 07:22:23;;;;;;;9.87;7.90;;;15.70;99.90;;;;;;5095292;28;20455;-69
2022/10/10 07:24:48;;;;;;;10.23;7.90;;;15.80;99.90;;;;;;5095682;28;20222;-70
2022/10/10 07:27:14;;;;;;;12.70;7.83;;;16.00;99.90;;;;;;5096077;28;20626;-70
2022/10/10 07:29:40;;;;;;;8.67;7.77;;;16.00;99.90;;;;;;5095969;28;20248;-70
2022/10/10 07:32:06;;;;;;;8.63;7.80;;;16.10;99.90;;;;;;5094912;28;20163;-70
2022/10/10 07:34:31;;;;;;;8.83;7.93;;;16.20;99.90;;;;;;5095293;28;20472;-70
2022/10/10 07:36:57;;;;;;;14.67;7.87;;;15.80;99.90;;;;;;5095558;28;20175;-70
2022/10/10 07:39:23;;;;;;;12.30;8.73;;;15.70;99.90;;;;;;5077244;28;20649;-70
2022/10/10 07:41:50;;;;;;;9.03;8.10;;;15.70;99.90;;;;;;5094226;28;20225;-70
2022/10/10 07:44:17;;;;;;;9.80;8.33;;;15.80;99.90;;;;;;5095594;28;20413;-70
2022/10/10 07:46:43;;;;;;;10.43;8.70;;;15.80;99.90;;;;;;5095261;28;20459;-70
2022/10/10 07:49:08;;;;;;;9.60;7.33;;;16.00;99.90;;;;;;5095691;28;20423;-70
2022/10/10 07:51:34;;;;;;;12.33;8.63;;;16.20;99.90;;;;;;5096061;28;20807;-70
2022/10/10 07:54:00;;;;;;;8.50;7.70;;;16.40;99.90;;;;;;5094115;28;20192;-69
2022/10/10 07:56:26;;;;;;;12.10;9.23;;;16.40;99.90;;;;;;5094709;28;21016;-70
2022/10/10 07:58:51;;;;;;;9.80;8.03;;;16.70;99.90;;;;;;5093684;28;20253;-70
2022/10/10 08:01:17;;;;;;;13.40;10.20;;;16.80;99.90;;;;;;5095087;28;20166;-70
2022/10/10 08:03:43;;;;;;;15.90;10.33;;;17.00;99.90;;;;;;5095423;28;20176;-70
2022/10/10 08:06:12;;;;;;;13.73;9.73;;;16.90;99.90;;;;;;5094964;28;20430;-70
2022/10/10 08:08:38;;;;;;;17.40;10.30;;;17.00;99.90;;;;;;5094515;28;20210;-71
2022/10/10 08:11:05;;;;;;;16.10;9.67;;;16.90;99.90;;;;;;5094530;28;20490;-70
2022/10/10 08:13:30;;;;;;;10.20;8.67;;;16.90;99.90;;;;;;5094997;28;20439;-70
2022/10/10 08:15:56;;;;;;;12.23;8.43;;;16.90;99.90;;;;;;5095068;28;20430;-70
2022/10/10 08:18:22;;;;;;;15.30;8.43;;;17.00;99.90;;;;;;5093454;28;20164;-70
2022/10/10 08:20:56;;;;;;;15.00;8.77;;;16.70;99.90;;;;;;5094790;28;20168;-70
2022/10/10 08:23:22;;;;;;;12.73;8.37;;;16.70;99.90;;;;;;5092517;28;20160;-70
2022/10/10 08:25:47;;;;;;;11.70;8.30;;;17.20;99.90;;;;;;5083308;28;20589;-69
2022/10/10 08:28:13;;;;;;;12.80;9.47;;;17.30;99.90;;;;;;5074358;28;20166;-70
2022/10/10 08:30:41;;;;;;;10.93;7.77;;;17.60;99.90;;;;;;5075160;28;20162;-70
2022/10/10 08:33:07;;;;;;;12.80;8.37;;;17.60;99.90;;;;;;5074758;28;20659;-70
2022/10/10 08:35:37;;;;;;;9.77;7.10;;;17.80;99.90;;;;;;5074018;28;20422;-70
2022/10/10 08:38:03;;;;;;;9.23;7.27;;;17.90;99.90;;;;;;5075228;28;20204;-70
2022/10/10 08:40:29;;;;;;;15.30;7.73;;;18.10;99.90;;;;;;5074394;28;20404;-70
2022/10/10 08:42:55;;;;;;;12.03;6.90;;;18.30;99.90;;;;;;5074286;28;20242;-70
2022/10/10 08:45:24;;;;;;;9.77;7.00;;;18.50;99.90;;;;;;5074220;28;20672;-70
2022/10/10 08:47:55;;;;;;;5.97;5.23;;;18.60;99.90;;;;;;5076715;28;20397;-70
2022/10/10 08:50:46;;;;;;;5.83;5.13;;;18.60;99.90;;;;;;5094238;28;20402;-70
2022/10/10 08:53:37;;;;;;;10.80;5.87;;;18.30;99.90;;;;;;5077921;28;20462;-70
2022/10/10 08:56:12;;;;;;;10.90;6.43;;;18.60;99.90;;;;;;5057233;28;20495;-70
2022/10/10 08:58:45;;;;;;;6.60;5.20;;;18.30;99.90;;;;;;5073815;28;20384;-69
2022/10/10 09:01:14;;;;;;;8.50;5.73;;;18.50;99.90;;;;;;5074241;28;20871;-69
2022/10/10 09:03:46;;;;;;;6.07;5.13;;;18.90;99.90;;;;;;5073488;28;20450;-69
2022/10/10 09:06:21;;;;;;;6.27;4.77;;;18.90;99.90;;;;;;5055985;28;20494;-69
2022/10/10 09:09:05;;;;;;;5.90;4.00;;;19.00;99.90;;;;;;5075426;28;20388;-70
2022/10/10 09:11:55;;;;;;;7.80;4.80;;;19.20;99.90;;;;;;5073341;28;20436;-69
2022/10/10 09:14:35;;;;;;;4.93;4.50;;;19.30;99.90;;;;;;5073506;28;20965;-70
2022/10/10 09:17:31;;;;;;;5.13;4.20;;;19.50;99.90;;;;;;5074173;28;20863;-70
2022/10/10 09:19:56;;;;;;;5.03;4.10;;;19.40;99.90;;;;;;5074366;28;20389;-71
2022/10/10 09:22:26;;;;;;;5.33;4.83;;;19.70;99.90;;;;;;5093383;28;20463;-71
2022/10/10 09:25:13;;;;;;;5.00;4.40;;;19.30;99.90;;;;;;5093460;28;20275;-71
2022/10/10 09:27:42;;;;;;;6.47;4.10;;;19.30;99.90;;;;;;5092512;28;20497;-70
2022/10/10 09:30:19;;;;;;;7.73;4.33;;;19.70;99.90;;;;;;5093581;28;20403;-70
2022/10/10 09:32:52;;;;;;;7.57;4.00;;;20.20;99.90;;;;;;5092175;28;20965;-71
2022/10/10 09:35:33;;;;;;;4.23;3.80;;;20.30;99.90;;;;;;5093504;28;20419;-70
2022/10/10 09:38:22;;;;;;;4.87;3.10;;;20.40;99.90;;;;;;5093581;28;20939;-70
2022/10/10 09:41:01;;;;;;;3.80;3.40;;;20.10;99.90;;;;;;5053613;28;20399;-70
2022/10/10 09:43:32;;;;;;;3.73;3.43;;;19.90;99.90;;;;;;5093797;28;20387;-70
2022/10/10 09:45:58;;;;;;;3.40;2.80;;;20.00;99.90;;;;;;5093371;28;20415;-70
2022/10/10 09:48:36;;;;;;;7.37;3.20;;;20.40;99.90;;;;;;5093177;28;20836;-70
2022/10/10 09:51:05;;;;;;;4.50;3.70;;;20.60;99.90;;;;;;5093353;28;20435;-70
2022/10/10 09:53:30;;;;;;;4.40;2.43;;;20.40;99.90;;;;;;5093114;28;20574;-70
2022/10/10 09:55:57;;;;;;;4.00;2.80;;;20.50;99.90;;;;;;5092625;28;20443;-70
2022/10/10 09:58:42;;;;;;;7.50;2.90;;;20.80;99.90;;;;;;5092942;28;20244;-70
2022/10/10 10:01:12;;;;;;;4.40;2.80;;;21.00;99.90;;;;;;5093362;28;20901;-70
2022/10/10 10:03:38;;;;;;;6.03;3.20;;;21.00;99.90;;;;;;5092155;28;20407;-69
2022/10/10 10:06:03;;;;;;;6.20;3.90;;;20.90;99.90;;;;;;5092990;28;20838;-70
2022/10/10 10:08:32;;;;;;;3.57;2.70;;;21.20;99.90;;;;;;5092922;28;20574;-70
2022/10/10 10:10:59;;;;;;;3.60;2.67;;;21.20;99.90;;;;;;5091212;28;20638;-71
2022/10/10 10:13:33;;;;;;;4.10;3.30;;;21.50;99.90;;;;;;5093059;28;20443;-70
2022/10/10 10:16:17;;;;;;;6.77;2.73;;;21.50;99.90;;;;;;5092576;28;20457;-70
2022/10/10 10:18:44;;;;;;;6.90;3.03;;;21.30;99.90;;;;;;5092653;28;20391;-70
2022/10/10 10:21:17;;;;;;;2.60;2.20;;;20.70;99.90;;;;;;5093007;28;20445;-70
2022/10/10 10:23:59;;;;;;;3.70;2.37;;;20.80;99.90;;;;;;5093023;28;20474;-70
2022/10/10 10:26:26;;;;;;;4.80;2.60;;;21.30;99.90;;;;;;5092510;28;20798;-70
2022/10/10 10:28:54;;;;;;;3.97;2.90;;;21.90;99.90;;;;;;5092674;28;20403;-70
2022/10/10 10:31:31;;;;;;;4.53;2.80;;;21.70;99.90;;;;;;5091210;28;20471;-70
2022/10/10 10:34:22;;;;;;;5.13;2.60;;;22.10;99.90;;;;;;5092560;28;20443;-70
2022/10/10 10:37:00;;;;;;;6.00;2.30;;;21.90;99.90;;;;;;5092963;28;20426;-70
2022/10/10 10:39:50;;;;;;;5.27;2.43;;;22.10;99.90;;;;;;5092467;28;20463;-70
2022/10/10 10:42:37;;;;;;;5.30;2.53;;;22.40;99.90;;;;;;5093078;28;20445;-70
2022/10/10 10:45:21;;;;;;;4.83;2.30;;;22.60;99.90;;;;;;5092752;28;20950;-70
2022/10/10 10:48:06;;;;;;;5.50;2.60;;;22.20;99.90;;;;;;5092732;28;20384;-70
2022/10/10 10:50:36;;;;;;;3.93;2.97;;;22.20;99.90;;;;;;5093058;28;20372;-70
2022/10/10 10:53:16;;;;;;;5.03;3.07;;;22.80;99.90;;;;;;5092367;28;20469;-70
2022/10/10 10:55:58;;;;;;;5.63;2.63;;;22.30;99.90;;;;;;5092279;28;20431;-70
2022/10/10 10:58:55;;;;;;;3.10;2.10;;;22.30;99.90;;;;;;5092479;28;20437;-70
2022/10/10 11:01:28;;;;;;;3.93;2.90;;;22.40;99.90;;;;;;5091043;28;20411;-70
2022/10/10 11:04:20;;;;;;;4.83;2.53;;;22.50;99.90;;;;;;5092699;28;20391;-70
2022/10/10 11:06:58;;;;;;;5.67;2.20;;;22.60;99.90;;;;;;5077123;28;20420;-70
2022/10/10 11:09:34;;;;;;;3.47;2.20;;;23.20;99.90;;;;;;5073611;28;20795;-71
2022/10/10 11:12:08;;;;;;;7.33;3.30;;;25.20;99.90;;;;;;5092106;28;20398;-70
2022/10/10 11:14:36;;;;;;;5.93;2.30;;;26.80;99.90;;;;;;5092259;28;20435;-71
2022/10/10 11:17:28;;;;;;;4.63;2.47;;;28.50;97.70;;;;;;5092210;28;20406;-71
2022/10/10 11:20:02;;;;;;;4.10;2.23;;;29.40;93.70;;;;;;5090729;28;20411;-70
2022/10/10 11:22:38;;;;;;;11.93;3.33;;;30.80;91.60;;;;;;5092137;28;20764;-69
2022/10/10 11:25:27;;;;;;;4.40;2.50;;;31.70;87.20;;;;;;5073717;28;20434;-71
2022/10/10 11:28:09;;;;;;;3.00;2.17;;;30.60;86.50;;;;;;5092406;28;20384;-71
2022/10/10 11:30:41;;;;;;;4.70;2.73;;;30.50;87.30;;;;;;5095749;28;20442;-71
2022/10/10 11:33:06;;;;;;;3.30;2.23;;;30.70;85.60;;;;;;5095418;28;20813;-70
2022/10/10 11:35:51;;;;;;;6.30;2.93;;;30.50;85.60;;;;;;5095804;28;20419;-70
2022/10/10 11:38:43;;;;;;;10.00;2.70;;;30.20;85.30;;;;;;5096006;28;20214;-70
2022/10/10 11:41:38;;;;;;;4.70;2.30;;;31.30;81.10;;;;;;5095250;28;20438;-72
2022/10/10 11:44:36;;;;;;;4.60;2.73;;;29.90;84.20;;;;;;5072178;28;20422;-70
2022/10/10 11:47:12;;;;;;;7.03;2.60;;;31.10;82.20;;;;;;5083168;28;20427;-70
2022/10/10 11:50:08;;;;;;;9.63;3.20;;;31.60;79.30;;;;;;5095516;28;20406;-70
2022/10/10 11:52:59;;;;;;;7.20;3.10;;;32.30;76.20;;;;;;5074342;28;20397;-71
2022/10/10 11:55:35;;;;;;;5.27;2.87;;;33.00;73.00;;;;;;5104046;22;20811;-69
2022/10/10 11:58:04;;;;;;;4.23;2.70;;;32.70;71.80;;;;;;5103213;28;20541;-70
2022/10/10 12:00:39;;;;;;;7.10;3.00;;;33.30;69.50;;;;;;5115647;28;20402;-70
2022/10/10 12:03:07;;;;;;;5.73;2.60;;;33.00;68.80;;;;;;5115802;28;20370;-70
2022/10/10 12:05:37;;;;;;;5.70;2.70;;;32.90;69.10;;;;;;5115685;28;20507;-71
2022/10/10 12:08:12;;;;;;;8.30;3.10;;;32.30;69.80;;;;;;5115410;28;20475;-70
2022/10/10 12:10:45;;;;;;;8.77;3.47;;;32.60;68.80;;;;;;5095394;28;20949;-71
2022/10/10 12:13:44;;;;;;;6.07;2.63;;;33.10;67.60;;;;;;5115745;28;20442;-70
2022/10/10 12:16:15;;;;;;;5.70;2.57;;;33.20;67.70;;;;;;5116114;28;20515;-71
2022/10/10 12:18:45;;;;;;;8.13;3.27;;;33.60;66.00;;;;;;5116160;28;20380;-70
2022/10/10 12:21:20;;;;;;;7.93;2.80;;;33.80;65.30;;;;;;5115451;28;20394;-71
2022/10/10 12:23:59;;;;;;;6.50;2.73;;;32.70;66.60;;;;;;5115603;28;20481;-70
2022/10/10 12:26:44;;;;;;;9.23;3.63;;;34.00;65.60;;;;;;5097887;28;20422;-71
2022/10/10 12:29:10;;;;;;;5.07;2.23;;;33.90;64.30;;;;;;5114804;28;20403;-71
2022/10/10 12:31:39;;;;;;;4.97;2.50;;;33.20;65.00;;;;;;5114931;28;20409;-71
2022/10/10 12:34:42;;;;;;;4.83;2.30;;;33.40;65.10;;;;;;5115257;28;20200;-71
2022/10/10 12:37:25;;;;;;;4.37;2.97;;;33.90;63.40;;;;;;5096786;28;20426;-71
2022/10/10 12:40:05;;;;;;;7.30;2.87;;;33.80;62.60;;;;;;5114981;28;20410;-71
2022/10/10 12:42:46;;;;;;;10.20;3.50;;;33.40;62.10;;;;;;5114302;28;20551;-72
2022/10/10 12:45:30;;;;;;;6.80;3.10;;;33.30;65.20;;;;;;5073673;28;20760;-71
2022/10/10 12:47:56;;;;;;;10.60;3.20;;;34.40;61.80;;;;;;5074372;28;20776;-70
2022/10/10 12:50:33;;;;;;;8.87;3.00;;;35.50;60.20;;;;;;5074071;28;20499;-71
2022/10/10 12:53:11;;;;;;;8.30;2.83;;;35.60;58.60;;;;;;5088795;28;20505;-71
2022/10/10 12:55:42;;;;;;;5.77;2.73;;;34.60;58.20;;;;;;5114555;28;20446;-71
2022/10/10 12:58:16;;;;;;;8.57;3.17;;;31.80;63.20;;;;;;5096087;28;20411;-70
2022/10/10 13:00:44;;;;;;;8.23;3.17;;;30.80;67.10;;;;;;5114574;28;20390;-70
2022/10/10 13:03:31;;;;;;;8.03;3.90;;;30.70;64.60;;;;;;5114411;28;20895;-70
2022/10/10 13:06:06;;;;;;;5.77;2.90;;;30.40;66.10;;;;;;5114448;28;20432;-70